Time;durP1;ratioP1;P1;durP2;ratioP2;P2;SDS_P1;SDS_P2;PMS_P1;PMS_P2;Temp;Humidity;BMP_temperature;BMP_pressure;BME280_temperature;BME280_humidity;BME280_pressure;Samples;Min_cycle;Max_cycle;Signal;HPM_P1;HPM_P2
2022/06/25 03:32:26;;;;;;;;;;;23.80;51.80;;;;;;6191346;23;19920;-94
2022/06/25 03:34:53;;;;;;;;;;;23.80;51.90;;;;;;6164930;23;19939;-95
2022/06/25 03:37:26;;;;;;;;;;;23.70;52.30;;;;;;6174313;23;19990;-96
2022/06/25 03:50:13;;;;;;;;;;;23.50;53.00;;;;;;6267252;22;19919;-96
2022/06/25 03:52:39;;;;;;;;;;;23.50;53.30;;;;;;6256794;22;19990;-95
2022/06/25 03:55:05;;;;;;;;;;;23.50;53.30;;;;;;6259192;22;19962;-96
2022/06/25 03:57:30;;;;;;;;;;;23.50;53.50;;;;;;6260201;22;19915;-96
2022/06/25 03:59:56;;;;;;;;;;;23.60;53.60;;;;;;6259899;22;19967;-96
2022/06/25 04:02:39;;;;;;;;;;;23.80;53.90;;;;;;6265299;22;19942;-96
2022/06/25 04:05:26;;;;;;;;;;;;;;;;;;;;;
2022/06/25 04:48:03;;;;;;;;;;;30.50;45.20;;;;;;6287949;22;19914;-96
2022/06/25 04:50:29;;;;;;;;;;;30.90;44.60;;;;;;6262099;22;19982;-96
2022/06/25 04:55:23;;;;;;;;;;;31.60;42.60;;;;;;6286664;22;19915;-96
2022/06/25 04:57:49;;;;;;;;;;;31.90;41.60;;;;;;6257482;22;19907;-96
2022/06/25 05:00:17;;;;;;;;;;;32.20;41.00;;;;;;6258566;22;19922;-96
2022/06/25 05:12:08;;;;;;;;;;;34.00;39.30;;;;;;6194976;23;19924;-96
2022/06/25 05:14:33;;;;;;;;;;;34.60;38.60;;;;;;6168813;23;19916;-96
2022/06/25 05:37:42;;;;;;;;;;;37.70;32.30;;;;;;6250598;22;19926;-93
2022/06/25 05:40:09;;;;;;;;;;;38.10;31.70;;;;;;6250673;23;19974;-93
2022/06/25 05:42:40;;;;;;;;;;;38.30;30.40;;;;;;6223266;23;19908;-96
2022/06/25 05:50:16;;;;;;;;;;;39.10;29.50;;;;;;6262527;22;19908;-96
2022/06/25 05:52:45;;;;;;;;;;;39.30;28.70;;;;;;6230006;23;19922;-96
2022/06/25 05:55:12;;;;;;;;;;;39.50;27.60;;;;;;6232526;23;19907;-96
2022/06/25 05:57:38;;;;;;;;;;;39.60;27.50;;;;;;6233302;23;19931;-96
2022/06/25 06:03:07;;;;;;;;;;;40.00;27.30;;;;;;6251141;22;19914;-95
2022/06/25 06:05:33;;;;;;;;;;;40.10;26.50;;;;;;6222705;23;19932;-95
2022/06/25 06:08:05;;;;;;;;;;;40.20;26.60;;;;;;6226902;23;20071;-96
2022/06/25 06:10:30;;;;;;;;;;;40.40;26.00;;;;;;6227491;23;19908;-96
2022/06/25 06:12:56;;;;;;;;;;;40.70;25.80;;;;;;6226357;23;19916;-94
2022/06/25 06:15:21;;;;;;;;;;;40.80;25.60;;;;;;6250280;23;19987;-93
2022/06/25 06:17:47;;;;;;;;;;;41.00;25.30;;;;;;6252286;22;19935;-95
2022/06/25 06:20:12;;;;;;;;;;;41.10;25.10;;;;;;6256838;22;20235;-94
2022/06/25 06:22:38;;;;;;;;;;;41.30;25.10;;;;;;6252967;22;20227;-93
2022/06/25 06:25:09;;;;;;;;;;;41.50;25.30;;;;;;6252231;22;19978;-94
2022/06/25 06:27:46;;;;;;;;;;;41.80;25.30;;;;;;6296088;22;19918;-95
2022/06/25 06:30:12;;;;;;;;;;;42.10;25.20;;;;;;6236137;22;19918;-95
2022/06/25 06:32:38;;;;;;;;;;;42.30;24.80;;;;;;6255940;22;19915;-96
2022/06/25 06:35:06;;;;;;;;;;;42.60;23.80;;;;;;6259201;22;19911;-96
2022/06/25 06:37:37;;;;;;;;;;;42.60;23.00;;;;;;6266112;22;19909;-95
2022/06/25 06:40:04;;;;;;;;;;;42.50;22.70;;;;;;6259965;22;19947;-92
2022/06/25 06:42:29;;;;;;;;;;;42.50;22.90;;;;;;6251303;22;19917;-93
2022/06/25 06:44:55;;;;;;;;;;;42.60;23.20;;;;;;6251547;22;20276;-93
2022/06/25 06:47:20;;;;;;;;;;;42.70;22.90;;;;;;6253089;22;19993;-93
2022/06/25 06:49:46;;;;;;;;;;;42.70;22.30;;;;;;6253602;22;19935;-93
2022/06/25 06:52:11;;;;;;;;;;;42.70;22.50;;;;;;6253779;22;19907;-93
2022/06/25 06:54:37;;;;;;;;;;;42.80;22.60;;;;;;6253718;22;19918;-93
2022/06/25 06:57:02;;;;;;;;;;;43.00;22.30;;;;;;6254333;22;20312;-95
2022/06/25 06:59:43;;;;;;;;;;;43.20;22.40;;;;;;6254338;22;19911;-95
2022/06/25 07:08:44;;;;;;;;;;;44.10;22.10;;;;;;6128527;23;20296;-95
2022/06/25 07:11:29;;;;;;;;;;;44.40;21.80;;;;;;6104294;23;19996;-96
2022/06/25 08:18:24;;;;;;;;;;;48.80;16.90;;;;;;6278599;22;19923;-92
2022/06/25 08:20:50;;;;;;;;;;;48.90;16.80;;;;;;6283297;22;19907;-94
2022/06/25 08:23:18;;;;;;;;;;;49.00;16.60;;;;;;6253389;22;20010;-94
2022/06/25 08:28:08;;;;;;;;;;;49.30;16.40;;;;;;6288813;22;19931;-95
2022/06/25 08:30:35;;;;;;;;;;;49.50;16.40;;;;;;6253629;22;19907;-95
2022/06/25 08:33:01;;;;;;;;;;;49.60;16.10;;;;;;6254763;22;19912;-96
2022/06/25 08:35:26;;;;;;;;;;;49.50;16.00;;;;;;6254911;22;19920;-96
2022/06/25 08:38:01;;;;;;;;;;;49.70;16.10;;;;;;6258749;22;19957;-96
2022/06/25 10:03:21;;;;;;;;;;;50.90;14.10;;;;;;6238229;22;20305;-94
2022/06/25 10:05:47;;;;;;;;;;;51.10;14.20;;;;;;6226001;22;19959;-93
2022/06/25 10:08:17;;;;;;;;;;;51.30;14.20;;;;;;6277971;22;19907;-93
2022/06/25 10:10:48;;;;;;;;;;;51.20;13.60;;;;;;6248931;22;19908;-92
2022/06/25 10:13:14;;;;;;;;;;;51.20;13.70;;;;;;6246817;22;19923;-93
2022/06/25 10:15:40;;;;;;;;;;;51.30;13.60;;;;;;6254334;22;20013;-95
2022/06/25 10:18:12;;;;;;;;;;;51.10;13.70;;;;;;6285049;22;19907;-95
2022/06/25 10:20:38;;;;;;;;;;;50.70;13.40;;;;;;6285016;22;19913;-96
2022/06/25 10:25:30;;;;;;;;;;;50.00;13.50;;;;;;6314645;22;19953;-96
2022/06/25 10:28:08;;;;;;;;;;;49.60;13.80;;;;;;6287234;22;19993;-96
2022/06/25 10:30:46;;;;;;;;;;;49.30;14.20;;;;;;6285030;22;19907;-96
2022/06/25 10:33:24;;;;;;;;;;;49.50;14.30;;;;;;6284758;22;19919;-96
2022/06/25 10:35:58;;;;;;;;;;;49.40;14.30;;;;;;6285390;22;19911;-96
2022/06/25 10:44:30;;;;;;;;;;;49.70;14.40;;;;;;6311937;22;20218;-96
2022/06/25 10:47:11;;;;;;;;;;;49.80;14.50;;;;;;6285184;22;19986;-96
2022/06/25 10:49:37;;;;;;;;;;;50.10;14.10;;;;;;6285067;22;19911;-95
2022/06/25 10:52:05;;;;;;;;;;;50.10;14.00;;;;;;6258994;22;19917;-96
2022/06/25 10:54:33;;;;;;;;;;;50.30;13.70;;;;;;6286105;22;19941;-96
2022/06/25 10:57:00;;;;;;;;;;;50.20;13.40;;;;;;6284302;22;19914;-96
2022/06/25 10:59:31;;;;;;;;;;;50.40;13.60;;;;;;6284159;22;20303;-95
2022/06/25 11:02:03;;;;;;;;;;;50.70;13.20;;;;;;6287099;22;19934;-95
2022/06/25 11:04:30;;;;;;;;;;;50.70;13.30;;;;;;6259940;22;19914;-95
2022/06/25 11:07:12;;;;;;;;;;;50.70;12.90;;;;;;6285331;22;19911;-96
2022/06/25 11:09:51;;;;;;;;;;;50.40;12.70;;;;;;6284466;22;19918;-96
2022/06/25 11:12:17;;;;;;;;;;;50.20;13.00;;;;;;6283238;22;19904;-94
2022/06/25 11:14:42;;;;;;;;;;;50.00;13.00;;;;;;6281734;22;19911;-94
2022/06/25 11:17:09;;;;;;;;;;;49.90;13.20;;;;;;6256733;22;19942;-93
2022/06/25 11:19:40;;;;;;;;;;;50.00;13.30;;;;;;6309995;22;20342;-94
2022/06/25 11:22:06;;;;;;;;;;;50.30;13.20;;;;;;6285091;22;20037;-96
2022/06/25 11:24:32;;;;;;;;;;;50.40;13.30;;;;;;6283133;22;20260;-94
2022/06/25 11:29:48;;;;;;;;;;;50.40;13.40;;;;;;6310111;22;19989;-93
2022/06/25 11:32:15;;;;;;;;;;;50.70;13.50;;;;;;6310447;22;19970;-94
2022/06/25 11:34:41;;;;;;;;;;;50.80;13.20;;;;;;6311024;22;19914;-94
2022/06/25 11:37:09;;;;;;;;;;;49.80;12.90;;;;;;6285713;22;19903;-95
2022/06/25 11:39:44;;;;;;;;;;;48.90;13.40;;;;;;6287308;22;19911;-96
2022/06/25 11:48:04;;;;;;;;;;;47.20;14.70;;;;;;6311760;22;19974;-95
2022/06/25 11:50:30;;;;;;;;;;;48.10;14.70;;;;;;6282816;22;19907;-95
2022/06/25 11:52:56;;;;;;;;;;;48.60;14.10;;;;;;6287557;22;19993;-94
2022/06/25 11:55:37;;;;;;;;;;;48.00;13.90;;;;;;6287628;22;20279;-95
2022/06/25 12:01:06;;;;;;;;;;;47.90;14.60;;;;;;6312616;22;19918;-95
2022/06/25 12:03:34;;;;;;;;;;;47.80;14.80;;;;;;6286994;22;20299;-95
2022/06/25 12:06:04;;;;;;;;;;;47.80;14.90;;;;;;6285315;22;19937;-94
2022/06/25 12:11:33;;;;;;;;;;;49.20;14.30;;;;;;6312514;22;19990;-94
2022/06/25 12:17:15;;;;;;;;;;;48.40;14.50;;;;;;6311948;22;19934;-94
2022/06/25 12:19:58;;;;;;;;;;;47.90;14.50;;;;;;6284518;22;19902;-96
2022/06/25 12:22:25;;;;;;;;;;;47.20;14.80;;;;;;6283641;22;19957;-96
2022/06/25 12:25:20;;;;;;;;;;;;;;;;;;;;;
2022/06/25 12:27:47;;;;;;;;;;;47.90;14.90;;;;;;6307857;22;19907;-96
2022/06/25 12:33:51;;;;;;;;;;;48.70;14.20;;;;;;6232884;22;19923;-95
2022/06/25 12:36:26;;;;;;;;;;;48.50;14.00;;;;;;6310855;22;20298;-95
2022/06/25 12:38:59;;;;;;;;;;;48.20;14.10;;;;;;6284846;22;19906;-95
2022/06/25 12:41:49;;;;;;;;;;;47.00;14.40;;;;;;6312020;22;19930;-95
2022/06/25 12:44:22;;;;;;;;;;;46.30;15.00;;;;;;6285479;22;19934;-95
2022/06/25 12:47:01;;;;;;;;;;;46.60;15.10;;;;;;6284540;22;19907;-95
2022/06/25 12:49:41;;;;;;;;;;;47.10;14.80;;;;;;6311135;22;19910;-95
2022/06/25 12:52:22;;;;;;;;;;;;;;;;;;;;;
2022/06/25 12:54:49;;;;;;;;;;;48.10;14.50;;;;;;6311894;22;19945;-95
2022/06/25 12:57:31;;;;;;;;;;;48.00;14.00;;;;;;6283721;22;19891;-95
2022/06/25 13:00:20;;;;;;;;;;;47.50;14.20;;;;;;6285036;22;19910;-94
2022/06/25 13:02:54;;;;;;;;;;;47.30;14.50;;;;;;6287212;22;19903;-96
2022/06/25 13:05:38;;;;;;;;;;;47.80;14.70;;;;;;6286532;22;19938;-95
2022/06/25 13:08:04;;;;;;;;;;;48.50;14.50;;;;;;6284429;22;20379;-95
2022/06/25 13:10:33;;;;;;;;;;;48.30;14.70;;;;;;6281825;22;19907;-95
2022/06/25 13:16:08;;;;;;;;;;;;;;;;;;;;;
2022/06/25 13:18:46;;;;;;;;;;;47.80;14.90;;;;;;6313296;22;19941;-95
2022/06/25 13:21:15;;;;;;;;;;;47.50;15.20;;;;;;6285650;22;19910;-95
2022/06/25 13:23:52;;;;;;;;;;;47.00;15.40;;;;;;6284870;22;19942;-95
2022/06/25 13:29:25;;;;;;;;;;;46.80;15.60;;;;;;6295545;22;19911;-95
2022/06/25 13:31:51;;;;;;;;;;;46.70;15.70;;;;;;6284839;22;20307;-95
2022/06/25 13:34:16;;;;;;;;;;;46.30;15.80;;;;;;6284202;22;20370;-94
2022/06/25 13:36:59;;;;;;;;;;;45.90;16.10;;;;;;6286739;22;19898;-95
2022/06/25 13:39:36;;;;;;;;;;;45.90;16.20;;;;;;6286253;22;19937;-95
2022/06/25 13:42:41;;;;;;;;;;;45.70;16.20;;;;;;6312307;22;19923;-94
2022/06/25 13:45:08;;;;;;;;;;;45.30;16.40;;;;;;6310939;22;19918;-96
2022/06/25 13:47:36;;;;;;;;;;;44.60;16.30;;;;;;6284070;22;19910;-95
2022/06/25 13:50:07;;;;;;;;;;;44.00;16.50;;;;;;6283911;22;19907;-95
2022/06/25 13:52:35;;;;;;;;;;;43.40;16.90;;;;;;6281191;22;19919;-95
2022/06/25 13:55:01;;;;;;;;;;;42.80;17.20;;;;;;6311170;22;19907;-95
2022/06/25 14:06:26;;;;;;;;;;;41.30;18.60;;;;;;6312877;22;19992;-96
2022/06/25 14:11:46;;;;;;;;;;;40.90;19.00;;;;;;6287346;22;19922;-92
2022/06/25 14:14:14;;;;;;;;;;;41.00;19.10;;;;;;6283760;22;19934;-92
2022/06/25 14:16:44;;;;;;;;;;;41.00;19.10;;;;;;6308442;22;19910;-93
2022/06/25 14:19:11;;;;;;;;;;;41.10;19.20;;;;;;6281929;22;19914;-93
2022/06/25 14:21:47;;;;;;;;;;;40.90;19.30;;;;;;6282024;22;19914;-91
2022/06/25 14:24:12;;;;;;;;;;;40.80;19.50;;;;;;6307284;22;19902;-91
2022/06/25 14:26:41;;;;;;;;;;;41.00;19.50;;;;;;6282045;22;19929;-92
2022/06/25 14:29:08;;;;;;;;;;;41.00;19.50;;;;;;6279789;22;19903;-92
2022/06/25 14:31:36;;;;;;;;;;;40.80;19.60;;;;;;6282247;22;19938;-94
2022/06/25 14:34:02;;;;;;;;;;;40.70;19.60;;;;;;6281920;22;20362;-90
2022/06/25 14:47:37;;;;;;;;;;;39.90;20.40;;;;;;6272903;22;20355;-94
2022/06/25 14:50:17;;;;;;;;;;;39.70;20.70;;;;;;6279537;22;19982;-96
2022/06/25 14:52:43;;;;;;;;;;;39.50;20.80;;;;;;6251538;22;19943;-95
2022/06/25 14:55:12;;;;;;;;;;;39.40;20.90;;;;;;6254460;22;19926;-96
2022/06/25 14:57:38;;;;;;;;;;;39.20;21.10;;;;;;6257311;22;20274;-96
2022/06/25 15:00:10;;;;;;;;;;;38.90;21.40;;;;;;6255579;22;19907;-96
2022/06/25 15:02:36;;;;;;;;;;;38.60;21.80;;;;;;6256410;22;19895;-96
2022/06/25 15:07:30;;;;;;;;;;;38.20;22.30;;;;;;6282972;22;19907;-95
2022/06/25 15:12:42;;;;;;;;;;;38.00;22.60;;;;;;6266570;22;19926;-94
2022/06/25 15:15:08;;;;;;;;;;;37.70;22.60;;;;;;6225715;22;19915;-93
2022/06/25 15:17:36;;;;;;;;;;;37.50;22.70;;;;;;6306076;22;19911;-94
2022/06/25 15:20:03;;;;;;;;;;;37.30;22.90;;;;;;6257171;22;19922;-92
2022/06/25 15:22:28;;;;;;;;;;;37.20;23.10;;;;;;6310192;22;20319;-92
2022/06/25 15:24:54;;;;;;;;;;;37.10;23.10;;;;;;6281832;22;19910;-95
2022/06/25 15:27:19;;;;;;;;;;;37.10;23.20;;;;;;6285371;22;19907;-95
2022/06/25 15:29:45;;;;;;;;;;;37.00;23.50;;;;;;6283426;22;19914;-95
2022/06/25 15:32:12;;;;;;;;;;;36.80;23.70;;;;;;6308585;22;20373;-93
2022/06/25 15:34:41;;;;;;;;;;;36.60;23.90;;;;;;6281469;22;19982;-95
2022/06/25 15:37:07;;;;;;;;;;;36.50;24.00;;;;;;6257747;22;19911;-94
2022/06/25 15:39:36;;;;;;;;;;;36.30;24.10;;;;;;6310947;22;19917;-94
2022/06/25 15:42:02;;;;;;;;;;;36.10;24.40;;;;;;6284754;22;19960;-95
2022/06/25 15:44:27;;;;;;;;;;;35.90;24.60;;;;;;6289004;22;19927;-96
2022/06/25 15:46:53;;;;;;;;;;;35.80;24.90;;;;;;6285740;22;19907;-92
2022/06/25 15:49:18;;;;;;;;;;;35.60;25.10;;;;;;6282182;22;19918;-92
2022/06/25 15:51:44;;;;;;;;;;;35.50;25.30;;;;;;6309793;22;19910;-95
2022/06/25 15:54:09;;;;;;;;;;;35.30;25.40;;;;;;6311077;22;19918;-94
2022/06/25 15:56:37;;;;;;;;;;;35.20;25.50;;;;;;6284962;22;20363;-91
2022/06/25 16:01:48;;;;;;;;;;;35.00;25.80;;;;;;6313385;22;19917;-95
2022/06/25 16:04:16;;;;;;;;;;;34.80;26.00;;;;;;6286693;22;19926;-92
2022/06/25 16:06:42;;;;;;;;;;;34.70;26.00;;;;;;6310701;22;20319;-93
2022/06/25 16:09:07;;;;;;;;;;;34.80;26.10;;;;;;6283203;22;19921;-94
2022/06/25 16:11:34;;;;;;;;;;;34.80;26.10;;;;;;6285315;22;19915;-95
2022/06/25 16:14:01;;;;;;;;;;;34.80;26.10;;;;;;6286532;22;19937;-91
2022/06/25 16:16:32;;;;;;;;;;;34.80;26.20;;;;;;6285859;22;19921;-95
2022/06/25 16:18:57;;;;;;;;;;;34.80;26.20;;;;;;6284110;22;19929;-92
2022/06/25 16:24:24;;;;;;;;;;;35.00;26.10;;;;;;6311268;22;19895;-94
2022/06/25 16:27:20;;;;;;;;;;;35.00;26.10;;;;;;6282605;22;19918;-93
2022/06/25 16:29:50;;;;;;;;;;;35.10;26.00;;;;;;6310121;22;20315;-94
2022/06/25 16:32:18;;;;;;;;;;;35.20;25.90;;;;;;6286157;22;19933;-93
2022/06/25 16:34:45;;;;;;;;;;;35.20;26.00;;;;;;6259689;22;19923;-93
2022/06/25 16:37:11;;;;;;;;;;;35.20;26.00;;;;;;6312693;22;19953;-94
2022/06/25 16:39:51;;;;;;;;;;;35.20;26.00;;;;;;6285544;22;19955;-93
2022/06/25 16:42:17;;;;;;;;;;;35.20;26.00;;;;;;6249495;23;20348;-94
2022/06/25 16:44:42;;;;;;;;;;;35.20;26.00;;;;;;6222777;23;19908;-94
2022/06/25 16:47:08;;;;;;;;;;;35.20;26.00;;;;;;6220911;23;19961;-95
2022/06/25 16:49:35;;;;;;;;;;;35.20;26.00;;;;;;6222461;23;20335;-95
2022/06/25 16:52:03;;;;;;;;;;;35.20;26.00;;;;;;6222218;23;19919;-95
2022/06/25 16:54:31;;;;;;;;;;;35.20;26.10;;;;;;6222249;23;19916;-94
2022/06/25 16:57:00;;;;;;;;;;;35.20;26.10;;;;;;6221625;23;19915;-94
2022/06/25 16:59:31;;;;;;;;;;;35.10;26.10;;;;;;6221732;23;20398;-94
2022/06/25 17:01:57;;;;;;;;;;;35.00;26.20;;;;;;6222807;23;19955;-94
2022/06/25 17:04:23;;;;;;;;;;;34.90;26.30;;;;;;6220723;23;20237;-95
2022/06/25 17:06:48;;;;;;;;;;;34.80;26.40;;;;;;6253073;22;19915;-96
2022/06/25 17:09:14;;;;;;;;;;;34.70;26.50;;;;;;6284263;22;19903;-95
2022/06/25 17:11:40;;;;;;;;;;;34.70;26.60;;;;;;6284517;22;19960;-94
2022/06/25 17:14:05;;;;;;;;;;;34.50;26.60;;;;;;6283452;22;19957;-92
2022/06/25 17:16:35;;;;;;;;;;;34.50;26.70;;;;;;6283644;22;19998;-96
2022/06/25 17:19:04;;;;;;;;;;;34.40;26.70;;;;;;6286763;22;20320;-96
2022/06/25 17:21:30;;;;;;;;;;;34.30;26.80;;;;;;6286431;22;20320;-94
2022/06/25 17:23:56;;;;;;;;;;;34.30;26.90;;;;;;6285731;22;19937;-95
2022/06/25 17:26:30;;;;;;;;;;;34.10;26.90;;;;;;6284708;22;19911;-94
2022/06/25 17:32:34;;;;;;;;;;;33.90;27.10;;;;;;6314997;22;19932;-93
2022/06/25 17:35:00;;;;;;;;;;;33.80;27.20;;;;;;6284119;22;19910;-92
2022/06/25 17:37:25;;;;;;;;;;;33.80;27.30;;;;;;6313085;22;20323;-95
2022/06/25 17:40:09;;;;;;;;;;;33.70;27.60;;;;;;6288146;22;19976;-96
2022/06/25 17:42:45;;;;;;;;;;;33.70;27.60;;;;;;6289566;22;19911;-95
2022/06/25 17:45:12;;;;;;;;;;;33.60;27.70;;;;;;6287886;22;19911;-96
2022/06/25 17:47:41;;;;;;;;;;;33.50;27.90;;;;;;6286654;22;20372;-96
2022/06/25 17:50:10;;;;;;;;;;;33.60;27.90;;;;;;6284399;22;19907;-93
2022/06/25 17:52:36;;;;;;;;;;;33.60;27.90;;;;;;6283504;22;19913;-91
2022/06/25 17:55:03;;;;;;;;;;;33.60;28.00;;;;;;6282415;22;19914;-92
2022/06/25 17:57:30;;;;;;;;;;;33.70;27.90;;;;;;6284536;22;19914;-93
2022/06/25 17:59:58;;;;;;;;;;;33.70;27.90;;;;;;6284167;22;19934;-92
2022/06/25 18:02:25;;;;;;;;;;;33.80;27.90;;;;;;6282122;22;19989;-91
2022/06/25 18:05:11;;;;;;;;;;;33.80;27.90;;;;;;6280678;22;19937;-94
2022/06/25 18:07:44;;;;;;;;;;;33.80;28.00;;;;;;6279687;22;20293;-92
2022/06/25 18:10:15;;;;;;;;;;;33.80;28.10;;;;;;6283875;22;20278;-94
2022/06/25 18:12:50;;;;;;;;;;;33.80;28.20;;;;;;6311969;22;19911;-95
2022/06/25 18:15:24;;;;;;;;;;;33.70;28.30;;;;;;6278637;22;20628;-94
2022/06/25 18:27:49;;;;;;;;;;;33.20;29.30;;;;;;6158906;23;20041;-94
2022/06/25 18:33:49;;;;;;;;;;;32.90;29.60;;;;;;6116994;23;19943;-94
2022/06/25 18:41:47;;;;;;;;;;;32.50;29.50;;;;;;6313278;22;19911;-94
2022/06/25 18:44:13;;;;;;;;;;;32.40;29.50;;;;;;6283113;22;19911;-93
2022/06/25 18:46:44;;;;;;;;;;;32.30;29.50;;;;;;6280297;22;19922;-91
2022/06/25 18:49:11;;;;;;;;;;;32.20;29.50;;;;;;6281644;22;19915;-93
2022/06/25 18:51:37;;;;;;;;;;;32.10;29.60;;;;;;6282265;22;20313;-94
2022/06/25 18:54:03;;;;;;;;;;;32.00;29.70;;;;;;6307314;22;19919;-90
2022/06/25 18:56:30;;;;;;;;;;;31.90;29.90;;;;;;6281368;22;19957;-93
2022/06/25 18:58:56;;;;;;;;;;;31.80;30.00;;;;;;6264070;22;19918;-96
2022/06/25 19:04:43;;;;;;;;;;;31.60;30.40;;;;;;6162191;22;20357;-94
2022/06/25 19:52:34;;;;;;;;;;;29.70;34.60;;;;;;6224497;22;19919;-94
2022/06/25 19:55:04;;;;;;;;;;;29.60;34.80;;;;;;6262995;22;20232;-96
2022/06/25 19:57:33;;;;;;;;;;;29.50;35.10;;;;;;6261913;22;19915;-92
2022/06/25 20:00:01;;;;;;;;;;;29.30;35.60;;;;;;6257053;22;19907;-94
2022/06/25 20:04:52;;;;;;;;;;;29.10;36.90;;;;;;6281960;22;19954;-92
2022/06/25 20:08:09;;;;;;;;;;;29.00;37.20;;;;;;6258707;22;19912;-96
2022/06/25 20:10:28;;;;;;;;;;;28.80;37.30;;;;;;6277992;22;19903;-92
2022/06/25 20:21:24;;;;;;;;;;;28.40;37.90;;;;;;6248514;22;19923;-93
2022/06/25 20:23:51;;;;;;;;;;;28.30;38.30;;;;;;6254542;22;19929;-91
2022/06/25 20:26:34;;;;;;;;;;;28.10;38.50;;;;;;6229030;22;19911;-92
2022/06/25 20:29:00;;;;;;;;;;;28.00;38.60;;;;;;6252108;22;19949;-92
2022/06/25 20:31:28;;;;;;;;;;;28.00;38.70;;;;;;6280109;22;19922;-91
2022/06/25 20:33:54;;;;;;;;;;;27.90;38.70;;;;;;6250951;22;19919;-91
2022/06/25 20:36:20;;;;;;;;;;;27.90;38.70;;;;;;6250880;22;19934;-89
2022/06/25 20:38:45;;;;;;;;;;;27.90;38.70;;;;;;6251457;22;20327;-90
2022/06/25 20:41:14;;;;;;;;;;;27.80;38.90;;;;;;6280680;22;19914;-96
2022/06/25 20:43:40;;;;;;;;;;;27.80;39.70;;;;;;6252395;22;19915;-92
2022/06/25 20:46:12;;;;;;;;;;;27.70;39.40;;;;;;6254554;22;20217;-94
2022/06/25 20:55:01;;;;;;;;;;;27.50;39.40;;;;;;6240435;22;19969;-96
2022/06/25 21:12:44;;;;;;;;;;;27.20;40.20;;;;;;6187837;23;20300;-94
2022/06/25 21:15:25;;;;;;;;;;;27.00;41.20;;;;;;6167842;23;19912;-92
2022/06/25 21:17:55;;;;;;;;;;;27.00;41.20;;;;;;6164580;23;20279;-92
2022/06/25 21:20:21;;;;;;;;;;;26.80;41.20;;;;;;6165632;23;19908;-94
2022/06/25 21:27:37;;;;;;;;;;;26.50;42.20;;;;;;6219430;23;19919;-92
2022/06/25 21:30:03;;;;;;;;;;;26.50;42.40;;;;;;6192155;23;20400;-94
2022/06/25 21:32:31;;;;;;;;;;;26.40;42.60;;;;;;6200087;23;19986;-96
2022/06/25 21:34:57;;;;;;;;;;;26.30;42.50;;;;;;6200209;23;19930;-96
2022/06/25 21:37:23;;;;;;;;;;;26.20;42.40;;;;;;6194917;23;20376;-93
2022/06/25 21:39:53;;;;;;;;;;;26.20;42.30;;;;;;6225994;23;20030;-96
2022/06/25 21:42:19;;;;;;;;;;;26.30;42.20;;;;;;6206880;23;19924;-95
2022/06/25 21:44:46;;;;;;;;;;;26.30;42.10;;;;;;6204252;23;19942;-89
2022/06/25 21:47:11;;;;;;;;;;;26.40;42.00;;;;;;6193698;23;19912;-89
2022/06/25 21:49:37;;;;;;;;;;;26.40;41.90;;;;;;6216780;23;19914;-90
2022/06/25 21:52:05;;;;;;;;;;;26.40;41.90;;;;;;6192886;23;19908;-91
2022/06/25 21:54:37;;;;;;;;;;;26.40;42.10;;;;;;6197822;23;19923;-95
2022/06/25 22:01:54;;;;;;;;;;;26.20;42.30;;;;;;6221608;23;19942;-92
2022/06/25 22:04:19;;;;;;;;;;;26.20;42.30;;;;;;6192892;23;19938;-93
2022/06/25 22:06:50;;;;;;;;;;;26.20;42.30;;;;;;6202060;23;19919;-94
2022/06/25 22:09:18;;;;;;;;;;;26.10;42.30;;;;;;6199795;23;19914;-93
2022/06/25 22:11:43;;;;;;;;;;;26.10;42.30;;;;;;6198821;23;19959;-93
2022/06/25 22:14:11;;;;;;;;;;;26.10;42.30;;;;;;6198390;23;19927;-91
2022/06/25 22:16:37;;;;;;;;;;;26.00;42.30;;;;;;6220191;23;19912;-90
2022/06/25 22:19:02;;;;;;;;;;;26.00;42.40;;;;;;6193185;23;19919;-90
2022/06/25 22:21:30;;;;;;;;;;;26.00;42.60;;;;;;6220611;23;19928;-91
2022/06/25 22:23:56;;;;;;;;;;;25.80;43.00;;;;;;6195430;23;20358;-93
2022/06/25 22:26:22;;;;;;;;;;;25.70;43.30;;;;;;6217529;23;20000;-92
2022/06/25 22:28:49;;;;;;;;;;;25.50;43.60;;;;;;6190767;23;19912;-91
2022/06/25 22:31:14;;;;;;;;;;;25.50;43.70;;;;;;6190672;23;19974;-93
2022/06/25 22:34:11;;;;;;;;;;;25.40;43.80;;;;;;6197735;23;19923;-96
2022/06/25 22:42:00;;;;;;;;;;;25.40;44.10;;;;;;6217311;22;19920;-94
2022/06/25 22:52:15;;;;;;;;;;;24.90;45.30;;;;;;6276314;22;19919;-96
2022/06/25 22:54:40;;;;;;;;;;;24.80;45.30;;;;;;6254966;22;19915;-94
2022/06/25 22:57:23;;;;;;;;;;;24.80;45.30;;;;;;6252652;22;19907;-93
2022/06/25 22:59:49;;;;;;;;;;;24.80;45.20;;;;;;6250793;22;19934;-92
2022/06/25 23:02:14;;;;;;;;;;;24.90;45.10;;;;;;6225425;22;19915;-93
2022/06/25 23:04:43;;;;;;;;;;;25.00;45.10;;;;;;6253044;22;20332;-96
2022/06/25 23:07:12;;;;;;;;;;;25.00;45.10;;;;;;6255901;22;20304;-96
2022/06/25 23:09:44;;;;;;;;;;;25.00;45.10;;;;;;6254708;22;19967;-96
2022/06/25 23:12:09;;;;;;;;;;;25.00;45.20;;;;;;6261047;22;19948;-96
2022/06/25 23:14:41;;;;;;;;;;;25.00;45.10;;;;;;6265784;22;19915;-96
2022/06/25 23:17:10;;;;;;;;;;;25.00;45.10;;;;;;6305771;22;19907;-96
2022/06/25 23:33:06;;;;;;;;;;;24.70;45.60;;;;;;6253731;23;19966;-96
2022/06/25 23:38:08;;;;;;;;;;;24.50;45.70;;;;;;6214252;22;19934;-96
2022/06/25 23:41:10;;;;;;;;;;;24.50;45.70;;;;;;6235370;22;19915;-96
2022/06/25 23:43:36;;;;;;;;;;;24.60;45.60;;;;;;6254214;22;19908;-95
2022/06/25 23:46:01;;;;;;;;;;;24.50;45.60;;;;;;6281057;22;19908;-94
2022/06/25 23:48:27;;;;;;;;;;;24.50;45.70;;;;;;6253557;22;19997;-93
2022/06/25 23:50:52;;;;;;;;;;;24.50;45.60;;;;;;6252392;22;19966;-93
2022/06/25 23:53:17;;;;;;;;;;;24.50;45.60;;;;;;6279886;22;19918;-92
2022/06/25 23:55:43;;;;;;;;;;;24.40;45.70;;;;;;6251803;22;19957;-93
2022/06/25 23:58:10;;;;;;;;;;;24.50;45.70;;;;;;6255095;22;19907;-96
